createdAt,value
2019-02-20T16:33:41.396Z,24.00
2019-02-20T16:36:08.187Z,24.00
2019-02-20T16:38:34.966Z,24.00
2019-02-20T16:41:01.738Z,24.00
2019-02-20T16:43:28.395Z,24.00
2019-02-20T16:45:55.269Z,24.00
2019-02-20T16:48:22.132Z,24.00
2019-02-20T16:50:48.875Z,24.10
2019-02-20T16:53:15.627Z,24.00
2019-02-20T16:55:42.332Z,24.00
2019-02-20T16:58:09.080Z,24.10
2019-02-20T17:00:36.257Z,24.20
2019-02-20T17:03:05.158Z,24.30
2019-02-20T17:05:31.710Z,24.30
2019-02-20T17:07:59.167Z,24.30
2019-02-20T17:10:25.866Z,24.30
2019-02-20T17:12:52.793Z,24.30
2019-02-20T17:15:19.506Z,24.30
2019-02-20T17:17:46.658Z,24.30
2019-02-20T17:20:17.709Z,24.30
2019-02-20T17:22:44.696Z,24.20
2019-02-20T17:25:14.099Z,24.20
2019-02-20T17:27:41.454Z,24.30
2019-02-20T17:30:13.717Z,24.30
2019-02-20T17:32:40.834Z,24.30
2019-02-20T17:35:09.133Z,24.30
2019-02-20T17:37:35.880Z,24.30
2019-02-20T17:40:04.081Z,24.20
2019-02-20T17:42:31.159Z,24.10
2019-02-20T17:44:57.860Z,24.20
2019-02-20T17:47:25.941Z,24.10
2019-02-20T17:49:52.689Z,24.10
2019-02-20T17:52:19.919Z,24.10
2019-02-20T17:54:47.063Z,24.10
2019-02-20T17:57:15.032Z,24.10
2019-02-20T17:59:41.689Z,24.10
2019-02-20T18:02:08.432Z,24.10
2019-02-20T18:04:35.995Z,24.10
2019-02-20T18:07:02.848Z,24.10
2019-02-20T18:09:29.751Z,24.10
2019-02-20T18:11:56.707Z,24.10
2019-02-20T18:14:23.448Z,24.00
2019-02-20T18:16:50.732Z,24.00
2019-02-20T18:19:17.441Z,24.00
2019-02-20T18:21:44.593Z,24.00
2019-02-20T18:24:11.338Z,23.90
2019-02-20T18:26:38.058Z,23.90
2019-02-20T18:29:05.174Z,23.90
2019-02-20T18:31:32.161Z,23.90
2019-02-20T18:33:59.681Z,24.00
2019-02-20T18:36:26.793Z,24.00
2019-02-20T18:38:54.007Z,23.90
2019-02-20T18:41:20.908Z,23.90
2019-02-20T18:43:48.135Z,24.00
2019-02-20T18:46:14.875Z,23.90
2019-02-20T18:48:41.942Z,23.90
2019-02-20T18:51:08.627Z,23.70
2019-02-20T18:53:35.754Z,23.60
2019-02-20T18:56:02.675Z,23.50
2019-02-20T18:58:33.915Z,23.50
2019-02-20T19:00:57.932Z,23.40
2019-02-20T19:03:24.652Z,23.30
2019-02-20T19:05:51.349Z,23.30
2019-02-20T19:08:42.973Z,23.20
2019-02-20T19:11:13.522Z,23.20
2019-02-20T19:13:49.838Z,23.20
2019-02-20T19:16:49.223Z,23.20
2019-02-20T19:19:20.537Z,23.20
2019-02-20T19:22:03.288Z,23.20
2019-02-20T19:24:46.211Z,23.20
2019-02-20T19:27:16.851Z,23.20
2019-02-20T19:30:03.094Z,23.10
2019-02-20T19:32:48.619Z,22.90
2019-02-20T19:35:24.950Z,22.70
2019-02-20T19:38:14.128Z,22.60
2019-02-20T19:40:47.684Z,22.50
2019-02-20T19:43:27.301Z,22.30
2019-02-20T19:46:30.207Z,22.30
2019-02-20T19:49:06.129Z,22.20
2019-02-20T19:51:37.292Z,22.10
2019-02-20T19:54:15.012Z,22.00
2019-02-20T19:56:45.553Z,21.90
2019-02-20T19:59:19.014Z,21.90
2019-02-20T20:01:58.843Z,21.70
2019-02-20T20:05:04.897Z,21.70
2019-02-20T20:08:09.518Z,21.60
2019-02-20T20:10:55.468Z,21.50
2019-02-20T20:13:30.204Z,21.50
2019-02-20T20:16:18.268Z,21.40
2019-02-20T20:18:48.794Z,21.30
2019-02-20T20:21:25.134Z,21.30
2019-02-20T20:24:04.540Z,21.20
2019-02-20T20:26:40.816Z,21.20
2019-02-20T20:29:27.140Z,21.10
2019-02-20T20:32:06.700Z,21.00
2019-02-20T20:34:42.800Z,21.00
2019-02-20T20:37:25.712Z,21.00
2019-02-20T20:39:58.999Z,20.90
2019-02-20T20:42:52.557Z,20.90
2019-02-20T20:45:29.220Z,20.80
2019-02-20T20:48:14.965Z,20.80
2019-02-20T20:51:02.614Z,20.70
2019-02-20T20:53:39.228Z,20.70
2019-02-20T20:56:29.475Z,20.70
2019-02-20T20:59:02.816Z,20.60
2019-02-20T21:01:49.116Z,20.60
2019-02-20T21:04:31.715Z,20.60
2019-02-20T21:07:26.827Z,20.60
2019-02-20T21:09:57.398Z,20.50
2019-02-20T21:12:46.365Z,20.50
2019-02-20T21:15:29.744Z,20.50
2019-02-20T21:18:15.155Z,20.40
2019-02-20T21:20:58.274Z,20.40
2019-02-20T21:23:35.054Z,20.40
2019-02-20T21:26:09.074Z,20.30
2019-02-20T21:28:53.928Z,20.30
2019-02-20T21:31:35.337Z,20.30
2019-02-20T21:34:24.323Z,20.20
2019-02-20T21:36:54.944Z,20.20
2019-02-20T21:39:31.235Z,20.20
2019-02-20T21:42:10.815Z,20.20
2019-02-20T21:44:53.649Z,20.20
2019-02-20T21:47:36.243Z,20.10
2019-02-20T21:50:43.439Z,20.10
2019-02-20T21:53:20.072Z,20.10
2019-02-20T21:56:05.287Z,20.00
2019-02-20T21:58:39.698Z,20.00
2019-02-20T22:01:13.284Z,20.00
2019-02-20T22:04:02.263Z,20.00
2019-02-20T22:06:33.248Z,20.00
2019-02-20T22:09:07.817Z,20.00
2019-02-20T22:12:02.867Z,20.00
2019-02-20T22:14:33.501Z,19.90
2019-02-20T22:17:16.608Z,19.90
2019-02-20T22:20:21.014Z,19.90
2019-02-20T22:23:00.545Z,20.00
2019-02-20T22:25:52.811Z,20.00
2019-02-20T22:28:38.014Z,20.00
2019-02-20T22:31:20.935Z,20.00
2019-02-20T22:34:11.175Z,20.10
2019-02-20T22:36:44.707Z,20.00
2019-02-20T22:39:32.097Z,20.10
2019-02-20T22:42:08.540Z,20.10
2019-02-20T22:44:45.319Z,20.10
2019-02-20T22:47:21.787Z,20.10
2019-02-20T22:50:08.949Z,20.20
2019-02-20T22:52:39.571Z,20.20
2019-02-20T22:55:20.351Z,20.20
2019-02-20T22:58:06.288Z,20.20
2019-02-20T23:01:03.087Z,20.20
2019-02-20T23:03:46.047Z,20.20
2019-02-20T23:06:22.531Z,20.20
2019-02-20T23:08:59.557Z,20.20
2019-02-20T23:11:47.064Z,20.30
2019-02-20T23:14:27.111Z,20.30
2019-02-20T23:16:53.959Z,20.30
2019-02-20T23:19:20.920Z,20.30
2019-02-20T23:21:49.458Z,20.30
2019-02-20T23:24:16.620Z,20.30
2019-02-20T23:26:43.531Z,20.30
2019-02-20T23:29:10.279Z,20.30
2019-02-20T23:31:37.524Z,20.40
2019-02-20T23:34:05.354Z,20.30
2019-02-20T23:36:33.151Z,20.40
2019-02-20T23:39:00.086Z,20.40
2019-02-20T23:41:26.847Z,20.40
2019-02-20T23:43:53.643Z,20.40
2019-02-20T23:46:20.559Z,20.40
2019-02-20T23:48:47.831Z,20.40
2019-02-20T23:51:14.974Z,20.40
2019-02-20T23:53:42.550Z,20.40
2019-02-20T23:56:09.461Z,20.40
2019-02-20T23:58:36.248Z,20.40
